Bridger, South Dakota
Current Conditions -  °F | °C
As of 11:55 AM on Thursday 30 Oct 2014 (Local Time) from KPHP Reporting Station
Few Clouds Few Clouds  
Wind Chill: 43°   Ceiling: Unl
Heat Index: 49°   Visibility: 10mi
Dew Point: 34°   Wind: 15mph
Humidity: 56%   Direction: 360°N
Pressure: 30.34"   Gusts: NA
Location:  44.534°N, 102.24°W
Report Text: KPHP 301755Z AUTO 36013KT 10SM FEW027 09/01 A3034 RMK AO2 SLP282 T00940011 10094 20017 51019
Loading
Personal Weather Stations






























Interactive Weather Map
Tropical Storm Tracking
New forecast layout! Learn more

10-Day Weather Forecast

Advertisements
Track Severe Weather on mobile